Time;durP1;ratioP1;P1;durP2;ratioP2;P2;SDS_P1;SDS_P2;PMS_P1;PMS_P2;Temp;Humidity;BMP_temperature;BMP_pressure;BME280_temperature;BME280_humidity;BME280_pressure;Samples;Min_cycle;Max_cycle;Signal;HPM_P1;HPM_P2
2022/02/17 00:01:44;;;;;;;0.00;0.00;;;;;20.60;100365.00;;;;5127446;27;20051;-79
2022/02/17 00:04:14;;;;;;;0.00;0.00;;;;;20.50;100358.00;;;;5126080;28;20075;-81
2022/02/17 00:06:43;;;;;;;0.00;0.00;;;;;20.40;100371.00;;;;5126127;28;20490;-78
2022/02/17 00:09:12;;;;;;;0.00;0.00;;;;;20.30;100359.00;;;;5127530;27;20051;-78
2022/02/17 00:11:43;;;;;;;2.67;2.53;;;;;20.30;100379.00;;;;5125950;28;20039;-78
2022/02/17 00:14:14;;;;;;;0.00;0.00;;;;;20.20;100392.00;;;;5125769;28;20284;-80
2022/02/17 00:16:43;;;;;;;0.00;0.00;;;;;20.10;100394.00;;;;5127499;27;20482;-78
2022/02/17 00:19:15;;;;;;;0.00;0.00;;;;;20.10;100380.00;;;;5127862;27;20088;-80
2022/02/17 00:21:45;;;;;;;0.00;0.00;;;;;20.00;100394.00;;;;5126351;28;20075;-80
2022/02/17 00:24:18;;;;;;;0.00;0.00;;;;;19.90;100415.00;;;;5126876;28;20050;-81
2022/02/17 00:26:48;;;;;;;0.00;0.00;;;;;19.90;100418.00;;;;5128626;28;20047;-79
2022/02/17 00:29:18;;;;;;;0.00;0.00;;;;;19.70;100414.00;;;;5127022;28;20422;-80
2022/02/17 00:31:48;;;;;;;0.00;0.00;;;;;19.70;100418.00;;;;5128309;27;20291;-79
2022/02/17 00:34:18;;;;;;;;;;;;;19.70;100425.00;;;;5126774;28;20043;-79
2022/02/17 00:36:48;;;;;;;0.00;0.00;;;;;19.70;100428.00;;;;5127076;27;19923;-80
2022/02/17 00:39:21;;;;;;;0.00;0.00;;;;;19.60;100423.00;;;;5125448;28;20050;-79
2022/02/17 00:41:55;;;;;;;0.00;0.00;;;;;19.60;100443.00;;;;5128458;27;20039;-79
2022/02/17 00:44:26;;;;;;;0.00;0.00;;;;;19.60;100414.00;;;;5092772;28;20418;-81
2022/02/17 00:46:56;;;;;;;0.00;0.00;;;;;19.50;100427.00;;;;5125983;28;20075;-80
2022/02/17 00:49:30;;;;;;;0.00;0.00;;;;;19.50;100394.00;;;;5108921;28;20051;-78
2022/02/17 00:51:59;;;;;;;0.00;0.00;;;;;19.50;100427.00;;;;5127562;27;20054;-78
2022/02/17 00:54:29;;;;;;;0.00;0.00;;;;;19.40;100409.00;;;;5125761;28;20411;-80
2022/02/17 00:57:01;;;;;;;0.00;0.00;;;;;19.40;100411.00;;;;5129583;27;20083;-77
2022/02/17 00:59:30;;;;;;;0.00;0.00;;;;;19.40;100434.00;;;;5130593;27;20047;-78
2022/02/17 01:02:00;;;;;;;0.00;0.00;;;;;19.40;100423.00;;;;5131281;27;20081;-79
2022/02/17 01:04:29;;;;;;;0.45;0.43;;;;;19.40;100423.00;;;;5129807;27;20518;-79
2022/02/17 01:06:59;;;;;;;0.00;0.00;;;;;19.50;100434.00;;;;5131809;27;20460;-80
2022/02/17 01:09:29;;;;;;;0.00;0.00;;;;;19.50;100433.00;;;;5132018;27;20043;-80
2022/02/17 01:11:58;;;;;;;0.00;0.00;;;;;19.50;100424.00;;;;5129790;27;20049;-78
2022/02/17 01:14:28;;;;;;;0.00;0.00;;;;;19.40;100415.00;;;;5130498;27;20103;-80
2022/02/17 01:16:58;;;;;;;0.00;0.00;;;;;19.30;100430.00;;;;5131527;27;20043;-80
2022/02/17 01:19:30;;;;;;;0.00;0.00;;;;;19.20;100427.00;;;;5131814;27;20039;-81
2022/02/17 01:22:00;;;;;;;0.00;0.00;;;;;19.20;100445.00;;;;5139587;27;20040;-79
2022/02/17 01:24:34;;;;;;;0.00;0.00;;;;;19.20;100440.00;;;;5139829;27;20043;-78
2022/02/17 01:27:09;;;;;;;0.00;0.00;;;;;19.20;100447.00;;;;5123118;27;20043;-77
2022/02/17 01:29:38;;;;;;;0.00;0.00;;;;;19.10;100436.00;;;;5140095;27;20107;-79
2022/02/17 01:32:09;;;;;;;0.00;0.00;;;;;19.10;100438.00;;;;5123743;27;20092;-79
2022/02/17 01:34:39;;;;;;;0.47;0.45;;;;;19.00;100433.00;;;;5145444;27;20054;-78
2022/02/17 01:37:09;;;;;;;0.00;0.00;;;;;19.10;100429.00;;;;5156883;27;20019;-78
2022/02/17 01:39:39;;;;;;;2.40;0.15;;;;;19.00;100425.00;;;;5153727;27;20154;-78
2022/02/17 01:42:12;;;;;;;0.00;0.00;;;;;19.00;100425.00;;;;5151579;27;20043;-78
2022/02/17 01:44:46;;;;;;;0.00;0.00;;;;;19.00;100429.00;;;;5152799;27;20111;-79
2022/02/17 01:47:18;;;;;;;0.00;0.00;;;;;18.90;100431.00;;;;5152198;27;20039;-79
2022/02/17 01:49:48;;;;;;;0.00;0.00;;;;;18.80;100430.00;;;;5132478;27;20051;-78
2022/02/17 01:52:19;;;;;;;0.00;0.00;;;;;18.80;100422.00;;;;5133659;27;20118;-78
2022/02/17 01:54:50;;;;;;;0.00;0.00;;;;;18.70;100429.00;;;;5130705;27;20039;-78
2022/02/17 01:57:27;;;;;;;0.00;0.00;;;;;18.70;100422.00;;;;5128303;27;20058;-79
2022/02/17 02:00:05;;;;;;;0.00;0.00;;;;;18.60;100434.00;;;;5128477;27;20043;-78
2022/02/17 02:02:46;;;;;;;0.00;0.00;;;;;18.60;100429.00;;;;5128466;27;20062;-80
2022/02/17 02:05:39;;;;;;;0.00;0.00;;;;;18.60;100425.00;;;;5120576;27;20130;-79
2022/02/17 02:08:10;;;;;;;0.00;0.00;;;;;18.70;100449.00;;;;5128556;27;20334;-79
2022/02/17 02:10:40;;;;;;;0.05;0.05;;;;;18.80;100435.00;;;;5111507;27;20402;-81
2022/02/17 02:13:09;;;;;;;0.00;0.00;;;;;18.80;100441.00;;;;5129272;27;20043;-80
2022/02/17 02:15:43;;;;;;;0.30;0.20;;;;;18.90;100437.00;;;;5110767;27;20055;-80
2022/02/17 02:18:17;;;;;;;0.00;0.00;;;;;19.10;100445.00;;;;5111593;27;20084;-81
2022/02/17 02:20:54;;;;;;;0.00;0.00;;;;;19.50;100401.00;;;;5111781;27;20528;-78
2022/02/17 02:23:33;;;;;;;0.00;0.00;;;;;19.60;100432.00;;;;5111176;27;20138;-79
2022/02/17 02:26:05;;;;;;;0.35;0.35;;;;;19.50;100433.00;;;;5127323;27;20047;-78
2022/02/17 02:28:35;;;;;;;0.00;0.00;;;;;19.50;100420.00;;;;5110848;27;20062;-83
2022/02/17 02:31:07;;;;;;;0.00;0.00;;;;;19.50;100428.00;;;;5127128;27;20047;-82
2022/02/17 02:33:37;;;;;;;;;;;;;19.50;100436.00;;;;5127688;27;20050;-79
2022/02/17 02:36:07;;;;;;;0.00;0.00;;;;;19.50;100430.00;;;;5128172;27;19968;-78
2022/02/17 02:38:57;;;;;;;0.00;0.00;;;;;19.50;100422.00;;;;5127030;27;20051;-79
2022/02/17 02:41:38;;;;;;;0.00;0.00;;;;;19.60;100418.00;;;;5127147;27;20084;-79
2022/02/17 02:44:08;;;;;;;0.00;0.00;;;;;19.50;100427.00;;;;5110750;27;20650;-80
2022/02/17 02:46:44;;;;;;;0.00;0.00;;;;;19.50;100406.00;;;;5126835;27;20292;-80
2022/02/17 02:49:16;;;;;;;0.00;0.00;;;;;19.30;100409.00;;;;5127103;27;20518;-80
2022/02/17 02:51:46;;;;;;;0.00;0.00;;;;;19.40;100413.00;;;;5109849;27;20035;-82
2022/02/17 02:54:17;;;;;;;0.00;0.00;;;;;19.30;100421.00;;;;5127648;27;20039;-81
2022/02/17 02:56:46;;;;;;;0.00;0.00;;;;;19.40;100407.00;;;;5128140;27;20047;-77
2022/02/17 02:59:16;;;;;;;0.00;0.00;;;;;19.30;100413.00;;;;5127290;27;20051;-82
2022/02/17 03:01:46;;;;;;;0.00;0.00;;;;;19.30;100436.00;;;;5126126;27;20057;-81
2022/02/17 03:04:15;;;;;;;0.00;0.00;;;;;19.20;100428.00;;;;5126381;27;20554;-82
2022/02/17 03:06:48;;;;;;;0.00;0.00;;;;;19.00;100415.00;;;;5126355;27;20039;-80
2022/02/17 03:09:22;;;;;;;0.00;0.00;;;;;18.90;100412.00;;;;5126593;27;20096;-80
2022/02/17 03:11:52;;;;;;;0.00;0.00;;;;;18.80;100430.00;;;;5126502;27;20525;-77
2022/02/17 03:14:24;;;;;;;0.00;0.00;;;;;18.70;100419.00;;;;5126653;27;21017;-83
2022/02/17 03:16:54;;;;;;;0.00;0.00;;;;;18.80;100418.00;;;;5126300;27;20536;-78
2022/02/17 03:19:24;;;;;;;0.00;0.00;;;;;18.80;100424.00;;;;5109921;27;20051;-79
2022/02/17 03:21:55;;;;;;;0.00;0.00;;;;;18.80;100401.00;;;;5126111;27;20043;-79
2022/02/17 03:24:25;;;;;;;0.00;0.00;;;;;18.80;100413.00;;;;5109865;27;20082;-80
2022/02/17 03:26:57;;;;;;;0.00;0.00;;;;;18.80;100413.00;;;;5126337;27;20086;-78
2022/02/17 03:29:26;;;;;;;0.00;0.00;;;;;18.70;100418.00;;;;5126350;27;20447;-79
2022/02/17 03:32:03;;;;;;;0.00;0.00;;;;;18.60;100431.00;;;;5126232;27;20074;-78
2022/02/17 03:34:33;;;;;;;5.72;0.28;;;;;18.60;100429.00;;;;5109242;27;20474;-79
2022/02/17 03:37:03;;;;;;;0.10;0.10;;;;;18.50;100413.00;;;;5125907;27;20055;-78
2022/02/17 03:39:34;;;;;;;0.00;0.00;;;;;18.30;100408.00;;;;5109536;27;20047;-78
2022/02/17 03:42:24;;;;;;;1.75;0.10;;;;;18.30;100434.00;;;;5116161;27;20530;-81
2022/02/17 03:45:02;;;;;;;0.00;0.00;;;;;18.30;100419.00;;;;5110914;27;20067;-80
2022/02/17 03:47:33;;;;;;;0.13;0.13;;;;;18.20;100432.00;;;;5127006;27;20382;-77
2022/02/17 03:50:08;;;;;;;0.00;0.00;;;;;18.00;100440.00;;;;5127369;27;20443;-79
2022/02/17 03:52:39;;;;;;;0.00;0.00;;;;;18.00;100432.00;;;;5125942;27;20051;-78
2022/02/17 03:55:34;;;;;;;0.10;0.10;;;;;17.90;100410.00;;;;5124148;27;20142;-79
2022/02/17 03:58:04;;;;;;;0.00;0.00;;;;;17.90;100414.00;;;;5126000;27;20050;-78
2022/02/17 04:00:36;;;;;;;0.00;0.00;;;;;17.90;100409.00;;;;5126374;27;20115;-78
2022/02/17 04:03:08;;;;;;;0.00;0.00;;;;;17.90;100414.00;;;;5125819;28;20058;-77
2022/02/17 04:05:38;;;;;;;0.00;0.00;;;;;17.70;100393.00;;;;5125540;28;20047;-77
2022/02/17 04:08:08;;;;;;;0.00;0.00;;;;;17.60;100402.00;;;;5126135;28;20054;-78
2022/02/17 04:10:40;;;;;;;0.00;0.00;;;;;17.60;100397.00;;;;5109464;28;20415;-76
2022/02/17 04:13:17;;;;;;;0.00;0.00;;;;;17.60;100410.00;;;;5125974;28;20104;-78
2022/02/17 04:15:50;;;;;;;0.00;0.00;;;;;17.60;100404.00;;;;5128387;27;20038;-79
2022/02/17 04:18:34;;;;;;;0.00;0.00;;;;;17.50;100411.00;;;;5111316;28;20043;-78
2022/02/17 04:21:14;;;;;;;0.00;0.00;;;;;17.50;100400.00;;;;5126936;27;20035;-78
2022/02/17 04:23:53;;;;;;;0.00;0.00;;;;;17.50;100398.00;;;;5127232;27;20043;-76
2022/02/17 04:26:29;;;;;;;0.00;0.00;;;;;17.40;100377.00;;;;5125405;28;20043;-78
2022/02/17 04:29:10;;;;;;;0.00;0.00;;;;;17.30;100378.00;;;;5126147;28;20047;-79
2022/02/17 04:31:49;;;;;;;0.03;0.03;;;;;17.30;100381.00;;;;5128784;27;20073;-78
2022/02/17 04:34:22;;;;;;;0.00;0.00;;;;;17.20;100388.00;;;;5129911;27;20051;-78
2022/02/17 04:37:00;;;;;;;0.00;0.00;;;;;17.10;100375.00;;;;5128238;27;20054;-77
2022/02/17 04:39:30;;;;;;;0.00;0.00;;;;;17.00;100375.00;;;;5130993;27;20035;-79
2022/02/17 04:42:19;;;;;;;0.00;0.00;;;;;17.10;100389.00;;;;5130220;27;20031;-77
2022/02/17 04:44:55;;;;;;;0.00;0.00;;;;;17.10;100382.00;;;;5129549;27;20142;-78
2022/02/17 04:47:25;;;;;;;1.40;0.20;;;;;17.20;100387.00;;;;5129296;27;20524;-76
2022/02/17 04:49:58;;;;;;;0.20;0.20;;;;;17.10;100368.00;;;;5113293;27;20039;-76
2022/02/17 04:52:28;;;;;;;0.20;0.20;;;;;17.10;100373.00;;;;5130890;27;20514;-76
2022/02/17 04:54:57;;;;;;;0.05;0.05;;;;;17.10;100383.00;;;;5129606;27;20050;-76
2022/02/17 04:57:27;;;;;;;0.00;0.00;;;;;17.10;100369.00;;;;5129540;27;20051;-76
2022/02/17 04:59:57;;;;;;;0.13;0.10;;;;;17.10;100348.00;;;;5129162;27;20578;-76
2022/02/17 05:02:26;;;;;;;0.00;0.00;;;;;17.10;100346.00;;;;5129363;27;20081;-77
2022/02/17 05:05:09;;;;;;;0.00;0.00;;;;;17.00;100353.00;;;;5130677;27;20035;-77
2022/02/17 05:07:41;;;;;;;0.00;0.00;;;;;17.00;100325.00;;;;5131127;27;20057;-76
2022/02/17 05:10:11;;;;;;;0.00;0.00;;;;;17.00;100347.00;;;;5130164;27;20421;-77
2022/02/17 05:12:44;;;;;;;0.00;0.00;;;;;17.10;100341.00;;;;5128345;27;20556;-77
2022/02/17 05:15:14;;;;;;;0.00;0.00;;;;;17.10;100337.00;;;;5128589;27;20058;-76
2022/02/17 05:17:44;;;;;;;0.00;0.00;;;;;17.00;100336.00;;;;5111620;27;20046;-78
2022/02/17 05:20:16;;;;;;;0.00;0.00;;;;;17.10;100341.00;;;;5128800;27;20723;-78
2022/02/17 05:23:06;;;;;;;0.00;0.00;;;;;17.20;100334.00;;;;5129572;27;20095;-79
2022/02/17 05:26:00;;;;;;;0.00;0.00;;;;;17.20;100361.00;;;;5129689;27;20148;-78
2022/02/17 05:28:50;;;;;;;0.00;0.00;;;;;17.00;100375.00;;;;5113837;27;20048;-80
2022/02/17 05:31:29;;;;;;;0.00;0.00;;;;;17.00;100355.00;;;;5113092;27;20129;-79
2022/02/17 05:34:22;;;;;;;0.00;0.00;;;;;16.90;100335.00;;;;5129199;27;20460;-78
2022/02/17 05:37:11;;;;;;;0.00;0.00;;;;;16.80;100344.00;;;;5129842;27;20061;-77
2022/02/17 05:40:06;;;;;;;0.00;0.00;;;;;16.70;100339.00;;;;5118737;27;20506;-77
2022/02/17 05:42:36;;;;;;;0.00;0.00;;;;;16.70;100346.00;;;;5127131;27;20109;-77
2022/02/17 05:45:08;;;;;;;0.00;0.00;;;;;16.60;100364.00;;;;5129452;27;20043;-78
2022/02/17 05:47:41;;;;;;;0.00;0.00;;;;;16.50;100344.00;;;;5129016;27;20647;-76
2022/02/17 05:50:11;;;;;;;0.00;0.00;;;;;16.50;100336.00;;;;5129257;27;20607;-76
2022/02/17 05:52:40;;;;;;;0.00;0.00;;;;;16.50;100335.00;;;;5129971;27;20075;-78
2022/02/17 05:55:10;;;;;;;0.00;0.00;;;;;16.50;100322.00;;;;5129330;27;20039;-76
2022/02/17 05:57:41;;;;;;;0.00;0.00;;;;;16.40;100307.00;;;;5129228;27;20047;-76
2022/02/17 06:00:11;;;;;;;0.00;0.00;;;;;16.40;100333.00;;;;5128093;27;20070;-78
2022/02/17 06:02:41;;;;;;;0.00;0.00;;;;;16.40;100332.00;;;;5129415;27;20537;-79
2022/02/17 06:05:12;;;;;;;0.00;0.00;;;;;16.30;100313.00;;;;5129490;27;20065;-78
2022/02/17 06:07:43;;;;;;;0.00;0.00;;;;;16.20;100321.00;;;;5128204;27;20289;-80
2022/02/17 06:10:12;;;;;;;0.00;0.00;;;;;16.20;100303.00;;;;5127951;27;20065;-76
2022/02/17 06:12:44;;;;;;;0.00;0.00;;;;;16.10;100316.00;;;;5128476;27;20132;-77
2022/02/17 06:15:16;;;;;;;0.00;0.00;;;;;16.10;100309.00;;;;5129198;27;20050;-76
2022/02/17 06:17:46;;;;;;;0.00;0.00;;;;;16.00;100311.00;;;;5127814;27;20064;-79
2022/02/17 06:20:15;;;;;;;0.15;0.10;;;;;16.00;100298.00;;;;5127680;27;20051;-77
2022/02/17 06:22:50;;;;;;;0.00;0.00;;;;;16.00;100285.00;;;;5129326;27;20065;-76
2022/02/17 06:25:20;;;;;;;0.00;0.00;;;;;16.00;100282.00;;;;5128303;27;20054;-78
2022/02/17 06:27:51;;;;;;;0.00;0.00;;;;;15.90;100299.00;;;;5129031;27;20047;-76
2022/02/17 06:30:23;;;;;;;0.00;0.00;;;;;15.90;100291.00;;;;5128875;27;20555;-78
2022/02/17 06:32:55;;;;;;;0.00;0.00;;;;;15.90;100302.00;;;;5128582;27;20064;-76
2022/02/17 06:35:32;;;;;;;0.00;0.00;;;;;15.90;100283.00;;;;5127006;27;20043;-77
2022/02/17 06:38:03;;;;;;;0.00;0.00;;;;;15.90;100297.00;;;;5128553;27;20084;-79
2022/02/17 06:40:33;;;;;;;0.00;0.00;;;;;15.90;100315.00;;;;5128103;27;20086;-79
2022/02/17 06:43:07;;;;;;;0.00;0.00;;;;;15.80;100315.00;;;;5126617;27;20095;-79
2022/02/17 06:45:40;;;;;;;0.00;0.00;;;;;15.80;100317.00;;;;5126815;27;20805;-77
2022/02/17 06:48:10;;;;;;;8.68;7.88;;;;;15.80;100316.00;;;;5127897;27;20063;-79
2022/02/17 06:50:39;;;;;;;0.00;0.00;;;;;15.80;100316.00;;;;5128415;27;20046;-77
2022/02/17 06:53:09;;;;;;;0.00;0.00;;;;;15.80;100283.00;;;;5126957;27;20046;-79
2022/02/17 06:55:38;;;;;;;0.00;0.00;;;;;15.80;100318.00;;;;5127812;27;20070;-80
2022/02/17 06:58:08;;;;;;;0.00;0.00;;;;;15.90;100315.00;;;;5126731;27;20100;-79
2022/02/17 07:00:37;;;;;;;0.00;0.00;;;;;15.90;100305.00;;;;5109699;27;20066;-77
2022/02/17 07:03:07;;;;;;;0.05;0.05;;;;;15.90;100290.00;;;;5128159;27;20039;-77
2022/02/17 07:05:37;;;;;;;0.00;0.00;;;;;15.80;100299.00;;;;5127982;27;20425;-78
2022/02/17 07:08:08;;;;;;;0.00;0.00;;;;;15.80;100295.00;;;;5128267;27;20510;-76
2022/02/17 07:10:55;;;;;;;0.00;0.00;;;;;15.80;100297.00;;;;5128387;27;20406;-78
2022/02/17 07:13:27;;;;;;;0.00;0.00;;;;;15.80;100288.00;;;;5127955;27;20050;-77
2022/02/17 07:15:58;;;;;;;0.00;0.00;;;;;15.80;100292.00;;;;5128369;27;20117;-77
2022/02/17 07:18:28;;;;;;;0.00;0.00;;;;;15.90;100320.00;;;;5128130;27;20054;-77
2022/02/17 07:20:58;;;;;;;0.00;0.00;;;;;15.90;100299.00;;;;5126328;27;20141;-77
2022/02/17 07:23:29;;;;;;;0.00;0.00;;;;;15.90;100314.00;;;;5126054;27;20526;-78
2022/02/17 07:25:58;;;;;;;0.00;0.00;;;;;15.80;100310.00;;;;5109047;27;20498;-78
2022/02/17 07:28:28;;;;;;;0.00;0.00;;;;;15.80;100321.00;;;;5126275;27;20050;-77
2022/02/17 07:30:57;;;;;;;0.00;0.00;;;;;15.80;100325.00;;;;5126087;27;20062;-78
2022/02/17 07:33:26;;;;;;;0.00;0.00;;;;;15.90;100334.00;;;;5126332;27;20035;-79
2022/02/17 07:35:57;;;;;;;0.00;0.00;;;;;15.80;100320.00;;;;5125680;27;20039;-76
2022/02/17 07:38:47;;;;;;;0.00;0.00;;;;;15.80;100321.00;;;;5126434;27;20088;-78
2022/02/17 07:41:16;;;;;;;0.00;0.00;;;;;15.80;100312.00;;;;5125729;27;20043;-79
2022/02/17 07:43:46;;;;;;;0.00;0.00;;;;;15.80;100313.00;;;;5126390;27;20137;-77
2022/02/17 07:46:16;;;;;;;0.00;0.00;;;;;15.70;100315.00;;;;5127840;27;20790;-78
2022/02/17 07:48:46;;;;;;;0.00;0.00;;;;;15.70;100294.00;;;;5126811;27;20043;-77
2022/02/17 07:51:16;;;;;;;0.00;0.00;;;;;15.80;100313.00;;;;5127096;27;20039;-77
2022/02/17 07:53:46;;;;;;;0.00;0.00;;;;;15.80;100288.00;;;;5127799;27;20054;-78
2022/02/17 07:56:16;;;;;;;0.00;0.00;;;;;15.70;100282.00;;;;5126093;27;20038;-78
2022/02/17 07:58:45;;;;;;;0.00;0.00;;;;;15.90;100289.00;;;;5127057;27;20043;-76
2022/02/17 08:01:18;;;;;;;0.00;0.00;;;;;15.80;100287.00;;;;5127226;27;20050;-77
2022/02/17 08:03:51;;;;;;;0.00;0.00;;;;;15.60;100304.00;;;;5109649;28;20047;-79
2022/02/17 08:06:21;;;;;;;0.00;0.00;;;;;15.50;100308.00;;;;5125400;27;20047;-77
2022/02/17 08:08:58;;;;;;;0.00;0.00;;;;;15.50;100296.00;;;;5125868;28;20473;-77
2022/02/17 08:11:27;;;;;;;0.00;0.00;;;;;15.50;100296.00;;;;5127294;27;20113;-78
2022/02/17 08:13:57;;;;;;;0.00;0.00;;;;;15.50;100294.00;;;;5125398;28;20091;-77
2022/02/17 08:16:27;;;;;;;0.00;0.00;;;;;15.50;100310.00;;;;5125966;28;20521;-79
2022/02/17 08:18:57;;;;;;;0.00;0.00;;;;;15.50;100315.00;;;;5126999;28;20047;-78
2022/02/17 08:21:45;;;;;;;0.00;0.00;;;;;15.40;100331.00;;;;5126929;27;20041;-78
2022/02/17 08:24:15;;;;;;;0.00;0.00;;;;;15.40;100323.00;;;;5126540;28;20520;-79
2022/02/17 08:26:45;;;;;;;0.00;0.00;;;;;15.50;100305.00;;;;5109264;28;20058;-78
2022/02/17 08:29:14;;;;;;;0.00;0.00;;;;;15.40;100303.00;;;;5125918;28;20063;-79
2022/02/17 08:31:43;;;;;;;0.00;0.00;;;;;15.30;100312.00;;;;5126212;28;20043;-79
2022/02/17 08:34:13;;;;;;;0.00;0.00;;;;;15.30;100304.00;;;;5124618;28;20074;-81
2022/02/17 08:36:42;;;;;;;0.00;0.00;;;;;15.30;100289.00;;;;5108822;28;20053;-80
2022/02/17 08:39:13;;;;;;;0.00;0.00;;;;;15.30;100308.00;;;;5127737;28;20057;-82
2022/02/17 08:41:42;;;;;;;0.00;0.00;;;;;15.30;100297.00;;;;5126458;27;20035;-77
2022/02/17 08:44:12;;;;;;;0.00;0.00;;;;;15.40;100324.00;;;;5126933;27;20051;-81
2022/02/17 08:46:42;;;;;;;0.00;0.00;;;;;15.30;100314.00;;;;5125222;28;20043;-80
2022/02/17 08:49:11;;;;;;;0.00;0.00;;;;;15.40;100315.00;;;;5125173;28;20125;-77
2022/02/17 08:51:41;;;;;;;0.00;0.00;;;;;15.40;100320.00;;;;5125520;28;20043;-79
2022/02/17 08:54:10;;;;;;;0.00;0.00;;;;;15.40;100300.00;;;;5127222;27;20035;-81
2022/02/17 08:56:45;;;;;;;0.00;0.00;;;;;15.40;100318.00;;;;5108919;28;20071;-80
2022/02/17 08:59:15;;;;;;;0.00;0.00;;;;;15.50;100312.00;;;;5108463;28;20112;-82
2022/02/17 09:01:45;;;;;;;0.00;0.00;;;;;15.50;100298.00;;;;5126622;27;20647;-81
2022/02/17 09:04:14;;;;;;;0.00;0.00;;;;;15.50;100305.00;;;;5127103;27;20043;-79
2022/02/17 09:06:46;;;;;;;0.00;0.00;;;;;15.50;100323.00;;;;5125754;28;20066;-81
2022/02/17 09:09:17;;;;;;;0.00;0.00;;;;;15.50;100314.00;;;;5125280;28;20547;-77
2022/02/17 09:11:47;;;;;;;0.00;0.00;;;;;15.50;100307.00;;;;5125858;28;20407;-78
2022/02/17 09:14:16;;;;;;;0.00;0.00;;;;;15.50;100303.00;;;;5124795;28;20039;-80
2022/02/17 09:16:46;;;;;;;0.00;0.00;;;;;15.60;100308.00;;;;5126254;27;20047;-80
2022/02/17 09:19:16;;;;;;;0.00;0.00;;;;;15.70;100289.00;;;;5129073;27;20050;-80
2022/02/17 09:21:45;;;;;;;0.00;0.00;;;;;15.70;100295.00;;;;5129951;27;20043;-80
2022/02/17 09:24:15;;;;;;;0.00;0.00;;;;;15.70;100304.00;;;;5128711;27;20058;-80
2022/02/17 09:26:48;;;;;;;0.00;0.00;;;;;15.80;100298.00;;;;5113391;27;20051;-78
2022/02/17 09:29:18;;;;;;;0.00;0.00;;;;;15.90;100284.00;;;;5129207;27;20039;-79
2022/02/17 09:32:09;;;;;;;0.00;0.00;;;;;16.00;100273.00;;;;5129347;27;20035;-80
2022/02/17 09:34:40;;;;;;;0.00;0.00;;;;;16.10;100293.00;;;;5113425;27;20510;-81
2022/02/17 09:37:10;;;;;;;0.00;0.00;;;;;16.20;100287.00;;;;5112261;27;20043;-77
2022/02/17 09:39:40;;;;;;;0.00;0.00;;;;;16.30;100284.00;;;;5112732;27;20047;-79
2022/02/17 09:42:10;;;;;;;0.00;0.00;;;;;16.50;100289.00;;;;5112859;27;20047;-78
2022/02/17 09:44:41;;;;;;;0.00;0.00;;;;;16.60;100268.00;;;;5129168;27;20138;-78
2022/02/17 09:47:11;;;;;;;0.00;0.00;;;;;16.90;100281.00;;;;5128837;27;20050;-78
2022/02/17 09:49:42;;;;;;;0.00;0.00;;;;;17.00;100281.00;;;;5128247;27;20317;-81
2022/02/17 09:52:16;;;;;;;0.00;0.00;;;;;17.10;100268.00;;;;5128981;27;20429;-79
2022/02/17 09:54:51;;;;;;;0.00;0.00;;;;;17.20;100260.00;;;;5130789;27;20039;-81
2022/02/17 09:57:22;;;;;;;0.00;0.00;;;;;17.30;100270.00;;;;5129868;27;20064;-79
2022/02/17 09:59:51;;;;;;;0.00;0.00;;;;;17.50;100250.00;;;;5128676;27;20096;-80
2022/02/17 10:02:26;;;;;;;0.00;0.00;;;;;17.70;100279.00;;;;5111572;27;20043;-81
2022/02/17 10:04:57;;;;;;;0.00;0.00;;;;;17.90;100258.00;;;;5129336;27;20502;-81
2022/02/17 10:07:35;;;;;;;0.00;0.00;;;;;18.10;100272.00;;;;5128903;27;20509;-81
2022/02/17 10:10:14;;;;;;;0.00;0.00;;;;;18.30;100257.00;;;;5128400;27;20078;-79
2022/02/17 10:13:17;;;;;;;0.00;0.00;;;;;18.50;100277.00;;;;5127959;27;20051;-82
2022/02/17 10:15:57;;;;;;;0.00;0.00;;;;;18.80;100269.00;;;;5128911;27;20123;-80
2022/02/17 10:18:39;;;;;;;0.70;0.70;;;;;19.10;100259.00;;;;5129258;27;20043;-81
2022/02/17 10:21:12;;;;;;;0.00;0.00;;;;;19.30;100275.00;;;;5127519;27;20047;-83
2022/02/17 10:23:46;;;;;;;0.00;0.00;;;;;19.80;100255.00;;;;5129064;27;20084;-80
2022/02/17 10:26:22;;;;;;;0.00;0.00;;;;;20.20;100200.00;;;;5129180;27;20035;-80
2022/02/17 10:28:59;;;;;;;0.00;0.00;;;;;20.80;100208.00;;;;5109592;27;20170;-82
2022/02/17 10:31:32;;;;;;;0.00;0.00;;;;;21.90;100217.00;;;;5127167;27;20043;-82
2022/02/17 10:34:03;;;;;;;0.00;0.00;;;;;21.90;100227.00;;;;5128551;27;20439;-80
2022/02/17 10:36:44;;;;;;;0.00;0.00;;;;;21.70;100242.00;;;;5109713;27;20069;-85
2022/02/17 10:39:22;;;;;;;0.00;0.00;;;;;21.30;100257.00;;;;5126544;27;20147;-79
2022/02/17 10:41:55;;;;;;;0.00;0.00;;;;;21.50;100181.00;;;;5128545;27;20706;-83
2022/02/17 10:44:30;;;;;;;0.00;0.00;;;;;22.60;100250.00;;;;5127207;27;20811;-81
2022/02/17 10:47:23;;;;;;;0.00;0.00;;;;;22.30;100277.00;;;;5128637;27;20509;-81
2022/02/17 10:49:55;;;;;;;0.00;0.00;;;;;22.20;100277.00;;;;5127382;27;20035;-81
2022/02/17 10:52:32;;;;;;;0.00;0.00;;;;;22.50;100292.00;;;;5128149;27;20084;-83
2022/02/17 10:55:28;;;;;;;0.00;0.00;;;;;22.10;100298.00;;;;5126811;27;20433;-83
2022/02/17 10:58:16;;;;;;;0.00;0.00;;;;;22.10;100286.00;;;;5127280;27;20143;-83
2022/02/17 11:00:46;;;;;;;0.00;0.00;;;;;22.50;100271.00;;;;5126364;27;20047;-79
2022/02/17 11:03:16;;;;;;;0.00;0.00;;;;;22.90;100271.00;;;;5110057;27;20055;-80
2022/02/17 11:06:07;;;;;;;0.00;0.00;;;;;26.00;100189.00;;;;5127641;27;20042;-80
2022/02/17 11:08:42;;;;;;;0.00;0.00;;;;;28.50;100124.00;;;;5125839;27;20134;-79
2022/02/17 11:11:16;;;;;;;0.00;0.00;;;;;28.80;100215.00;;;;5110469;27;20089;-80
2022/02/17 11:13:48;;;;;;;0.00;0.00;;;;;28.70;100232.00;;;;5126867;27;20107;-80
2022/02/17 11:16:23;;;;;;;0.00;0.00;;;;;27.70;100232.00;;;;5126851;27;20047;-81
2022/02/17 11:18:55;;;;;;;0.20;0.20;;;;;26.60;100304.00;;;;5127030;27;20046;-81
2022/02/17 11:21:25;;;;;;;19.08;17.63;;;;;25.10;100319.00;;;;5128065;27;20057;-79
2022/02/17 11:24:02;;;;;;;0.10;0.10;;;;;24.60;100304.00;;;;5126130;27;20056;-81
2022/02/17 11:26:35;;;;;;;0.00;0.00;;;;;26.80;100207.00;;;;5109415;27;20057;-81
2022/02/17 11:29:30;;;;;;;0.00;0.00;;;;;26.80;100266.00;;;;5125845;27;20077;-81
2022/02/17 11:32:02;;;;;;;0.00;0.00;;;;;29.20;100233.00;;;;5126574;27;20043;-79
2022/02/17 11:34:43;;;;;;;0.00;0.00;;;;;27.20;100270.00;;;;5126169;27;20510;-80
2022/02/17 11:37:33;;;;;;;0.00;0.00;;;;;26.10;100309.00;;;;5130668;27;20080;-81
2022/02/17 11:40:15;;;;;;;0.00;0.00;;;;;25.10;100311.00;;;;5125985;27;20084;-81
2022/02/17 11:43:01;;;;;;;0.00;0.00;;;;;26.30;100234.00;;;;5126949;27;20039;-79
2022/02/17 11:45:44;;;;;;;0.00;0.00;;;;;26.60;100236.00;;;;5133743;27;20055;-80
2022/02/17 11:48:15;;;;;;;0.00;0.00;;;;;27.70;100219.00;;;;5130120;27;20047;-81
2022/02/17 11:50:50;;;;;;;0.00;0.00;;;;;28.80;100163.00;;;;5125867;27;20074;-81
2022/02/17 11:53:36;;;;;;;9.80;8.15;;;;;29.50;100226.00;;;;5126043;27;20043;-81
2022/02/17 11:56:06;;;;;;;0.00;0.00;;;;;29.70;100214.00;;;;5126730;27;20077;-83
2022/02/17 11:58:44;;;;;;;0.00;0.00;;;;;30.10;100198.00;;;;5128263;27;20050;-83
2022/02/17 12:01:26;;;;;;;0.10;0.03;;;;;31.30;100179.00;;;;5126107;27;20051;-78
2022/02/17 12:03:56;;;;;;;0.00;0.00;;;;;31.20;100236.00;;;;5126736;27;20043;-83
2022/02/17 12:06:59;;;;;;;0.00;0.00;;;;;29.20;100324.00;;;;5126597;28;20038;-79
2022/02/17 12:09:32;;;;;;;0.00;0.00;;;;;28.60;100301.00;;;;5128189;28;20126;-83
2022/02/17 12:12:23;;;;;;;0.10;0.10;;;;;28.50;100294.00;;;;5127825;28;20092;-80
2022/02/17 12:14:57;;;;;;;0.20;0.20;;;;;28.90;100295.00;;;;5127262;28;20047;-82
2022/02/17 12:17:33;;;;;;;0.00;0.00;;;;;29.80;100285.00;;;;5125357;28;20051;-80
2022/02/17 12:20:12;;;;;;;0.00;0.00;;;;;29.50;100302.00;;;;5126107;28;20062;-79
2022/02/17 12:22:56;;;;;;;0.00;0.00;;;;;29.00;100358.00;;;;5127257;28;20043;-81
2022/02/17 12:25:32;;;;;;;0.00;0.00;;;;;27.60;100396.00;;;;5127694;28;20094;-83
2022/02/17 12:28:10;;;;;;;0.00;0.00;;;;;26.50;100390.00;;;;5129050;27;20035;-79
2022/02/17 12:30:44;;;;;;;0.00;0.00;;;;;26.60;100355.00;;;;5127389;27;20062;-83
2022/02/17 12:33:24;;;;;;;0.10;0.10;;;;;27.60;100378.00;;;;5127921;27;20042;-80
2022/02/17 12:36:00;;;;;;;0.00;0.00;;;;;27.40;100396.00;;;;5130556;28;20043;-84
2022/02/17 12:38:31;;;;;;;0.00;0.00;;;;;27.60;100388.00;;;;5127830;28;20061;-79
2022/02/17 12:41:07;;;;;;;0.00;0.00;;;;;28.10;100367.00;;;;5125648;28;20039;-83